Regionale Übersicht

METAR und TAF

Montag, 23. September 2019 - 17:25 Uhr

Beobachtete horizontale meteorologische Sicht an ausgewählten Flughäfen. Die vollständigen METARs und Flugwettervorhersagen (TAFs) sind verfügbar, wenn Sie auf das entsprechende Symbol mit der ICAO-Flughafenkennung klicken.

  • Luxemburg (ELLX)

    Taf: TAF ELLX 231100Z 2312/2418 24008KT 9999 SCT025 BECMG 2313/2315 SCT020 BKN030 BECMG 2322/2324 18005KT BECMG 2410/2412 5000 RA BKN015=

    Metar: METAR ELLX 231450Z 28008KT 9999 FEW023 BKN055 16/11 Q1017 NOSIG=

  • Spangdahlem (ETAD)

    Taf: TAF ETAD 231158Z 2312/2418 23010G18KT 9999 SCT015 OVC030 QNH2994INS BECMG 2318/2319 23005KT 8000 BR SCT015 SCT030 QNH2996INS TEMPO 2323/2405 5000 BR BKN008 BECMG 2407/2408 18010G15KT 9999 NSW BKN015 OVC030 QNH2986INS BECMG 2413/2414 18010G15KT 8000 -SHRA BKN005 OVC008 QNH2974INS TX17/2315Z TN11/2403Z=

    Metar: nil

  • Metz/Nancy (LFJL)

    Taf: TAF LFJL 231100Z 2312/2412 24008KT 9999 SCT020 BKN030 BECMG 2402/2404 14010KT BECMG 2409/2411 -RA=

    Metar: nil

  • Saarbrücken/Intl (EDDR)

    Taf: TAF EDDR 231100Z 2312/2412 25009KT 9999 SCT015 BKN035 BECMG 2316/2319 20003KT PROB30 TEMPO 2400/2408 1200 BCFG=

    Metar: nil

  • Hahn (EDFH)

    Taf: TAF EDFH 231100Z 2312/2412 26010KT 9999 SCT015 BECMG 2323/2401 19005KT BECMG 2406/2408 17010KT=

    Metar: nil

  • Ramstein (ETAR)

    Taf: TAF ETAR 231007Z 2310/2416 25009KT 9999 FEW020 BKN050 QNH2995INS BECMG 2403/2404 VRB06KT 5000 BR BKN020 QNH2990INS TEMPO 2404/2407 BKN010 BECMG 2409/2410 VRB06KT 9999 NSW FEW020 SCT030 QNH2983INS TX20/2314Z TN08/2404Z=

    Metar: nil

  • Nancy/Ochey (LFSO)

    Taf: TAF LFSO 231400Z 2315/2415 25008KT 9999 SCT025 BKN040 FM232000 15005KT CAVOK BECMG 2411/2413 21010KT RA BKN020 OVC030 TEMPO 2413/2415 4000 DZRA BKN007 OVC010=

    Metar: nil

  • Liège Bierset (EBLG)

    Taf: TAF EBLG 231120Z 2312/2418 24008KT 9999 FEW020 BKN040 BECMG 2406/2408 17010KT TEMPO 2406/2418 20015G25KT 4000 RA SHRA SCT008 BKN012=

    Metar: nil

  • Saint-Dizier (LFSI)

    Taf: TAF LFSI 231400Z 2315/2415 23007KT 9999 FEW030 SCT050=

    Metar: nil

  • Maastricht/Zuid Limburg (EHBK)

    Taf: TAF EHBK 231110Z 2312/2418 20007KT 9999 SCT020 PROB30 TEMPO 2312/2317 7000 -SHRA FEW018TCU BECMG 2407/2409 17011KT TEMPO 2409/2418 5000 RA=

    Metar: nil

  • Köln/Köln-Bonn (EDDK)

    Taf: TAF EDDK 231100Z 2312/2418 19004KT 9999 FEW015 BKN030 BECMG 2312/2315 25005KT BECMG 2317/2320 13004KT BECMG 2407/2410 14010KT PROB30 TEMPO 2413/2417 RA=

    Metar: METAR EDDK 231450Z 26009KT 240V310 9999 FEW035 19/11 Q1015 NOSIG=

  • Charleroi (EBCI)

    Taf: TAF EBCI 231120Z 2312/2418 24007KT 9999 FEW020 SCT040 BECMG 2406/2408 18010KT TEMPO 2406/2418 20015G25KT 4000 RA SHRA SCT008 BKN012=

    Metar: nil

  • Wiesbaden (ETOU)

    Taf: TAF ETOU 231109Z 2311/2417 25009KT 9999 BKN015 QNH2996INS TEMPO 2311/2314 8000 -SHRA BKN010 BECMG 2316/2317 VRB06KT 9999 SCT040 QNH2993INS BECMG 2410/2411 18010G15KT 9999 BKN020 QNH2988INS TX22/2314Z TN10/2405Z=

    Metar: nil

  • Karlsruhe/Baden-Baden (EDSB)

    Taf: TAF EDSB 231100Z 2312/2412 20008KT 9999 SCT025 BECMG 2316/2318 20003KT PROB30 TEMPO 2400/2407 0500 FG TEMPO 2407/2409 2500 BCFG=

    Metar: nil

  • Chalons/Vatry (LFOK)

    Taf: TAF LFOK 231100Z 2312/2412 24010KT 9999 SCT025 BECMG 2318/2320 16005KT=

    Metar: nil

  • Frankfurt/Main (EDDF)

    Taf: TAF AMD EDDF 231228Z 2312/2418 22004KT 9999 SCT015 PROB30 TEMPO 2312/2318 4500 SHRA BKN014TCU PROB30 TEMPO 2400/2408 2500 BCFG=

    Metar: METAR EDDF 231450Z 24010KT 9999 VCSH FEW015 FEW032CB SCT038 BKN048 20/11 Q1015 NOSIG=

  • Brüssel (EBBR)

    Taf: TAF EBBR 231120Z 2312/2418 24009KT 9999 FEW020 SCT040 BECMG 2406/2408 18010KT TEMPO 2406/2418 20015G25KT 4000 RA SHRA SCT008 BKN012=

    Metar: METAR EBBR 231450Z 25008KT 220V280 9999 FEW035 19/10 Q1015 NOSIG=

  • Düsseldorf (EDDL)

    Taf: TAF EDDL 231100Z 2312/2418 23007KT 9999 SCT015 BKN030 BECMG 2317/2320 16005KT BECMG 2400/2403 15010KT TEMPO 2410/2417 14015G25KT PROB30 TEMPO 2413/2417 RA=

    Metar: nil

  • Luxeuil (LFSX)

    Taf: TAF LFSX 231400Z 2315/2415 25010KT 9999 SCT040 BECMG 2321/2323 VRB02KT 1000 BR BKN005 TEMPO 2323/2408 0200 FG OVC003 BECMG 2408/2410 15010KT CAVOK BECMG 2412/2414 22010KT 3000 RA SCT010 OVC025=

    Metar: nil

  • Eindhoven (EHEH)

    Taf: TAF EHEH 231101Z 2312/2418 21008KT 9999 SCT020 SCT050 BKN300 TEMPO 2313/2318 SCT018CB SCT022 BECMG 2318/2321 16005KT BECMG 2413/2415 4000 RA SCT018 OVC030 BECMG 2416/2418 3000 -DZRA SCT010 OVC015=

    Metar: nil

  • Niederrhein (EDLV)

    Taf: TAF EDLV 231100Z 2312/2412 22006KT 9999 BKN015 BECMG 2317/2320 VRB03KT BECMG 2321/2324 15005KT BECMG 2406/2409 15010KT=

    Metar: nil

  • Dortmund/Wickede (EDLW)

    Taf: TAF EDLW 231100Z 2312/2412 24006KT 9999 BKN015 TEMPO 2312/2315 BKN013 BECMG 2317/2320 18005KT BECMG 2404/2407 18010KT=

    Metar: nil

  • Stuttgart/Echterdingen (EDDS)

    Taf: TAF EDDS 231100Z 2312/2412 24006KT 9999 SCT020 BKN040 PROB30 TEMPO 2312/2313 BKN013 BECMG 2317/2319 VRB03KT PROB30 TEMPO 2400/2408 1200 BCFG BECMG 2409/2411 16005KT=

    Metar: METAR EDDS 231450Z 27010KT 9999 FEW030 18/10 Q1017 NOSIG=

  • Basel-Mühlhausen (LFSB)

    Taf: TAF LFSB 231100Z 2312/2412 27007KT 9999 SCT030 BKN040 BECMG 2316/2319 CAVOK PROB40 TEMPO 2401/2407 4000 BCFG=

    Metar: METAR LFSB 231500Z 29008KT 260V330 9999 FEW036 BKN076 19/11 Q1017 NOSIG=

  • Lille (LFQQ)

    Taf: TAF LFQQ 231100Z 2312/2418 23012KT 9999 BKN025 BECMG 2318/2320 16006KT TEMPO 2320/2409 4000 RA BECMG 2409/2411 16016KT BKN013 OVC030 TEMPO 2411/2416 3000 RA OVC007 BECMG 2416/2417 24012KT BKN030=

    Metar: nil

  • Paris/Charles de Gaulle (LFPG)

    Taf: TAF LFPG 231100Z 2312/2418 21010KT 9999 FEW040 TX22/2315Z TN15/2405Z TEMPO 2407/2411 19015G25KT 3000 RA BECMG 2408/2410 BKN008 BECMG 2412/2414 24015G25KT BKN020 TEMPO 2414/2418 SCT020TCU BKN020=

    Metar: nil

  • Paderborn/Lippstadt (EDLP)

    Taf: TAF EDLP 231100Z 2312/2412 26005KT 9999 SCT006 BKN025 TEMPO 2312/2314 BKN006 BECMG 2316/2319 VRB03KT BECMG 2320/2323 18005KT BECMG 2408/2411 17010KT=

    Metar: nil

  • Paris/Le Bourget (LFPB)

    Taf: TAF LFPB 231100Z 2312/2412 21010KT 9999 FEW040 TEMPO 2407/2412 19015G25KT 3000 RA BECMG 2408/2410 BKN008=

    Metar: METAR LFPB 231500Z AUTO 19011KT CAVOK 21/10 Q1015 NOSIG=

  • Rotterdam (EHRD)

    Taf: TAF EHRD 231101Z 2312/2418 24010KT 9999 SCT015 PROB30 TEMPO 2312/2314 7000 -SHRA FEW018TCU BECMG 2318/2321 16008KT PROB30 TEMPO 2401/2408 7000 -RADZ BKN018 BECMG 2410/2413 6000 RA SCT012 OVC015 TEMPO 2413/2418 4000 RA SHRA BKN008 SCT015CB=

    Metar: nil

  • Zürich/Kloten (LSZH)

    Taf: TAF LSZH 231425Z 2315/2421 14007KT 9999 FEW015 SCT025 TX17/2315Z TN08/2405Z TX18/2414Z TEMPO 2315/2317 29005KT BECMG 2316/2319 VRB03KT PROB40 2402/2407 2000 BCFG PROB30 2403/2406 1000 PRFG VV004 PROB30 TEMPO 2416/2421 SHRA BKN040=

    Metar: METAR LSZH 231450Z 16008KT 9999 FEW020 FEW030TCU 17/12 Q1018 NOSIG=

  • Oostende/Intl (EBOS)

    Taf: TAF EBOS 231120Z 2312/2418 26010KT 9999 FEW020 BKN040 BECMG 2319/2321 18012KT TEMPO 2321/2416 19015G25KT 4000 RA SHRA SCT008 BKN012 PROB40 TEMPO 2402/2408 2500 DZRA BKN005 PROB40 TEMPO 2408/2414 20022G35KT BKN008 BKN012CB=

    Metar: nil

  • Paris/Orly (LFPO)

    Taf: TAF LFPO 231100Z 2312/2418 23010KT 9999 SCT030 BECMG 2400/2403 BKN035 TEMPO 2407/2412 17010G20KT 2500 RA BKN012 SCT060TCU PROB40 TEMPO 2410/2412 BKN008 BECMG 2412/2414 22010KT SCT025 TEMPO 2414/2418 26012G25KT 4000 -SHRA SCT025TCU=

    Metar: nil

  • Beauvais (LFOB)

    Taf: TAF LFOB 231100Z 2312/2412 23010KT 9999 SCT035 TEMPO 2316/2407 4000 RA BECMG 2404/2406 16012KT TEMPO 2407/2412 3000 RA BKN006 OVC013=

    Metar: nil

  • Münster/Intl (EDDG)

    Taf: TAF EDDG 231100Z 2312/2412 23005KT 9999 SCT012 BKN030 PROB30 TEMPO 2312/2315 BKN012 BECMG 2317/2319 VRB03KT BECMG 2322/2324 3000 BR PROB30 TEMPO 2400/2406 0800 FG BECMG 2406/2409 15007KT 9999=

    Metar: METAR EDDG 231450Z 20004KT 9999 FEW018 18/14 Q1014 NOSIG=

  • Illesheim (ETIK)

    Taf: TAF ETIK 231405Z 2314/2420 28009KT 9000 -SHRA BKN020 OVC030 QNH2996INS TEMPO 2314/2316 BKN015 BECMG 2316/2317 VRB06KT 9999 NSW BKN020 QNH2998INS BECMG 2321/2322 25009KT 9999 BKN020 QNH2986INS TEMPO 2401/2407 6000 BR TX20/2413Z TN09/2402Z=

    Metar: nil

  • Duebendorf (LSMD)

    Taf: TAF LSMD 230925Z 2310/2416 VRB03KT 9999 FEW005 SCT015 BKN030 PROB30 TEMPO 2310/2312 4500 SHRA BKN012 PROB40 TEMPO 2310/2316 29010KT BECMG 2400/2403 4000 MIFG PROB40 2402/2408 2000 BCFG PROB40 TEMPO 2412/2416 RA=

    Metar: nil

  • Villacoublay (LFPV)

    Taf: TAF LFPV 231400Z 2315/2415 20010KT 9999 BKN040 TEMPO 2318/2322 4500 RA BECMG 2406/2407 RA OVC008 BECMG 2411/2412 NSW TEMPO 2413/2415 4000 SHRA SCT020TCU=

    Metar: nil

  • Payerne (LSMP)

    Taf: TAF AMD LSMP 231114Z 2311/2416 VRB03KT 9999 FEW022 BECMG 2316/2318 CAVOK BECMG 2409/2411 9999 FEW025 BKN045 TEMPO 2409/2413 8000 RA=

    Metar: nil

  • Amsterdam/Schipol (EHAM)

    Taf: TAF EHAM 231101Z 2312/2418 22010KT 9999 SCT018 BECMG 2312/2315 25010KT PROB30 TEMPO 2312/2314 7000 -SHRA FEW018TCU BECMG 2318/2321 16008KT PROB30 TEMPO 2402/2408 7000 -RADZ BKN018 BECMG 2411/2414 6000 RA SCT012 OVC015 TEMPO 2414/2418 4000 RA SHRA BKN008 SCT015CB=

    Metar: METAR EHAM 231455Z 24013KT 210V270 9999 FEW023 19/12 Q1013 NOSIG=

  • Emmen (LSME)

    Taf: TAF LSME 230925Z 2310/2416 VRB03KT 9999 FEW005 SCT015 BKN030 PROB40 TEMPO 2310/2312 4500 SHRA BKN012 BECMG 2400/2403 4000 MIFG PROB40 2402/2408 2000 BCFG PROB40 TEMPO 2411/2416 RA=

    Metar: nil

  • Friedrichshafen (EDNY)

    Taf: TAF EDNY 231100Z 2312/2412 23007KT 9999 FEW012 BKN030 BECMG 2315/2317 VRB03KT PROB40 TEMPO 2402/2407 2500 BCFG=

    Metar: nil

  • Alpnach (LSMA)

    Taf: TAF LSMA 230925Z 2310/2416 VRB03KT 5000 RA FEW005 SCT015 BKN030 PROB40 TEMPO 2310/2312 4500 SHRA BKN012 BECMG 2311/2314 9999 NSW PROB40 2400/2406 4000 MIFG PROB40 TEMPO 2411/2416 RA=

    Metar: nil

  • Meiringen (LSMM)

    Taf: TAF LSMM 230925Z 2310/2416 06007KT 9999 FEW008 BKN035 PROB40 TEMPO 2310/2312 4500 SHRA BKN012 BECMG 2311/2314 9999 NSW PROB40 2400/2406 4000 MIFG PROB30 TEMPO 2403/2406 2000 BCFG PROB40 TEMPO 2411/2416 RA=

    Metar: nil

  • Nürnberg (EDDN)

    Taf: TAF EDDN 231100Z 2312/2412 27010KT 9999 FEW008 BKN015 TEMPO 2312/2317 RADZ BKN012 BECMG 2315/2317 25005KT BECMG 2319/2321 VRB03KT BECMG 2408/2410 16005KT=

    Metar: METAR EDDN 231450Z 29007KT 9999 FEW020 BKN037 16/13 Q1016 NOSIG=

  • Rouen (LFOP)

    Taf: TAF LFOP 231100Z 2312/2412 23010KT 9999 BKN030 TEMPO 2316/2402 4000 RA BECMG 2402/2405 16013KT 4000 RA BKN013 OVC030 TEMPO 2406/2412 OVC006=

    Metar: nil

  • Evreux (LFOE)

    Taf: TAF LFOE 231400Z 2315/2415 21012G25KT 9999 BKN045 BECMG 2319/2321 BKN014 TEMPO 2319/2403 4000 -RA BKN008 BECMG 2321/2323 OVC010 BECMG 2403/2406 4000 -RA BKN007 TEMPO 2406/2409 2000 RA BKN005=

    Metar: nil

  • Erfurt/Bindersleben (EDDE)

    Taf: TAF EDDE 231100Z 2312/2412 29010KT 9999 BKN020 PROB30 TEMPO 2316/2403 4000 -RADZ BKN014 BECMG 2400/2403 23006KT=

    Metar: nil